createdAt,value
2022-09-12T00:00:49.963Z,10.40
2022-09-12T00:02:49.969Z,10.40
2022-09-12T00:04:49.948Z,10.30
2022-09-12T00:06:49.948Z,10.20
2022-09-12T00:08:49.975Z,10.20
2022-09-12T00:10:50.042Z,10.20
2022-09-12T00:12:49.919Z,10.30
2022-09-12T00:14:49.979Z,10.50
2022-09-12T00:17:19.930Z,10.70
2022-09-12T00:19:19.940Z,10.70
2022-09-12T00:21:19.932Z,10.80
2022-09-12T00:23:19.953Z,10.80
2022-09-12T00:25:19.959Z,10.70
2022-09-12T00:27:20.033Z,10.70
2022-09-12T00:29:20.022Z,10.70
2022-09-12T00:31:20.045Z,10.60
2022-09-12T00:33:19.986Z,10.60
2022-09-12T00:35:19.965Z,10.60
2022-09-12T00:37:19.929Z,10.60
2022-09-12T00:39:19.927Z,10.50
2022-09-12T00:41:19.950Z,10.50
2022-09-12T00:43:20.109Z,10.60
2022-09-12T00:45:19.961Z,10.60
2022-09-12T00:47:19.957Z,10.60
2022-09-12T00:49:19.971Z,10.60
2022-09-12T00:51:19.949Z,10.60
2022-09-12T00:55:19.967Z,10.40
2022-09-12T00:57:20.040Z,10.40
2022-09-12T00:59:19.973Z,10.30
2022-09-12T01:01:20.075Z,10.20
2022-09-12T01:03:19.982Z,10.10
2022-09-12T01:05:20.024Z,10.10
2022-09-12T01:07:20.042Z,10.00
2022-09-12T01:09:20.056Z,9.90
2022-09-12T01:11:19.963Z,9.80
2022-09-12T01:13:19.995Z,9.80
2022-09-12T01:15:20.050Z,9.80
2022-09-12T01:17:20.075Z,9.80
2022-09-12T01:19:20.054Z,9.90
2022-09-12T01:25:19.997Z,10.00
2022-09-12T01:27:29.212Z,10.20
2022-09-12T01:29:29.132Z,10.40
2022-09-12T01:31:29.119Z,10.40
2022-09-12T01:33:29.099Z,10.50
2022-09-12T01:35:29.146Z,10.50
2022-09-12T01:37:29.132Z,10.60
2022-09-12T01:39:29.143Z,10.60
2022-09-12T01:41:29.200Z,10.60
2022-09-12T01:43:29.124Z,10.60
2022-09-12T01:45:29.225Z,10.60
2022-09-12T01:47:29.108Z,10.60
2022-09-12T01:49:29.147Z,10.50
2022-09-12T01:51:29.132Z,10.50
2022-09-12T01:53:29.196Z,10.50
2022-09-12T01:55:29.154Z,10.50
2022-09-12T01:57:29.117Z,10.50
2022-09-12T01:59:29.147Z,10.50
2022-09-12T02:01:29.179Z,10.60
2022-09-12T02:03:29.153Z,10.60
2022-09-12T02:05:29.168Z,10.50
2022-09-12T02:07:29.156Z,10.50
2022-09-12T02:09:29.148Z,10.40
2022-09-12T02:11:29.146Z,10.40
2022-09-12T02:13:29.217Z,10.40
2022-09-12T02:15:29.136Z,10.30
2022-09-12T02:17:29.180Z,10.20
2022-09-12T02:19:29.304Z,10.20
2022-09-12T02:21:29.160Z,10.20
2022-09-12T02:23:29.170Z,10.10
2022-09-12T02:25:29.165Z,10.00
2022-09-12T02:27:29.211Z,10.00
2022-09-12T02:29:29.168Z,10.00
2022-09-12T02:31:29.256Z,10.00
2022-09-12T02:33:29.172Z,9.90
2022-09-12T02:35:29.151Z,9.90
2022-09-12T02:37:29.139Z,9.80
2022-09-12T02:39:59.201Z,9.70
2022-09-12T02:41:59.245Z,9.70
2022-09-12T02:43:59.144Z,9.70
2022-09-12T02:45:59.192Z,9.70
2022-09-12T02:47:59.155Z,9.60
2022-09-12T02:49:59.165Z,9.60
2022-09-12T02:51:59.183Z,9.60
2022-09-12T02:53:59.179Z,9.60
2022-09-12T02:55:59.160Z,9.60
2022-09-12T02:57:59.247Z,9.50
2022-09-12T02:59:59.173Z,9.50
2022-09-12T03:01:59.334Z,9.50
2022-09-12T03:03:59.157Z,9.50
2022-09-12T03:05:59.312Z,9.50
2022-09-12T03:07:59.157Z,9.50
2022-09-12T03:09:59.197Z,9.60
2022-09-12T03:11:59.191Z,9.60
2022-09-12T03:13:59.165Z,9.70
2022-09-12T03:15:59.182Z,9.70
2022-09-12T03:17:59.188Z,9.60
2022-09-12T03:19:59.196Z,9.60
2022-09-12T03:21:59.229Z,9.60
2022-09-12T03:23:59.179Z,9.50
2022-09-12T03:25:59.164Z,9.40
2022-09-12T03:27:59.189Z,9.40
2022-09-12T03:29:59.185Z,9.40
2022-09-12T03:31:59.211Z,9.40
2022-09-12T03:33:59.173Z,9.20
2022-09-12T03:35:59.190Z,9.20
2022-09-12T03:37:59.251Z,9.20
2022-09-12T03:39:59.284Z,9.20
2022-09-12T03:41:59.255Z,9.20
2022-09-12T03:43:59.265Z,9.10
2022-09-12T03:45:59.240Z,9.10
2022-09-12T03:47:59.232Z,9.10
2022-09-12T03:49:59.256Z,9.10
2022-09-12T03:51:59.260Z,9.10
2022-09-12T03:53:59.190Z,9.10
2022-09-12T03:55:59.261Z,9.10
2022-09-12T03:57:59.197Z,9.00
2022-09-12T03:59:59.227Z,9.00
2022-09-12T04:01:59.404Z,8.90
2022-09-12T04:03:59.202Z,9.00
2022-09-12T04:05:59.212Z,9.00
2022-09-12T04:07:59.202Z,9.00
2022-09-12T04:09:59.227Z,9.00
2022-09-12T04:11:59.307Z,9.00
2022-09-12T04:13:59.201Z,9.00
2022-09-12T04:15:59.341Z,8.90
2022-09-12T04:18:02.426Z,8.90
2022-09-12T04:19:59.204Z,8.90
2022-09-12T04:21:59.188Z,8.80
2022-09-12T04:23:59.201Z,8.80
2022-09-12T04:25:59.212Z,8.80
2022-09-12T04:27:59.236Z,8.80
2022-09-12T04:30:29.308Z,8.70
2022-09-12T04:32:29.296Z,8.70
2022-09-12T04:34:29.274Z,8.70
2022-09-12T04:36:29.228Z,8.70
2022-09-12T04:38:29.280Z,8.70
2022-09-12T04:40:29.226Z,8.60
2022-09-12T04:42:31.327Z,8.70
2022-09-12T04:44:29.228Z,8.80
2022-09-12T04:46:29.246Z,8.80
2022-09-12T04:48:29.319Z,8.70
2022-09-12T04:50:29.249Z,8.80
2022-09-12T04:52:29.270Z,8.80
2022-09-12T04:54:29.270Z,8.80
2022-09-12T04:56:29.283Z,8.80
2022-09-12T04:58:29.325Z,8.80
2022-09-12T05:00:29.260Z,8.80
2022-09-12T05:02:29.379Z,8.80
2022-09-12T05:04:29.254Z,8.80
2022-09-12T05:06:30.036Z,8.80
2022-09-12T05:08:29.651Z,8.80
2022-09-12T05:10:29.246Z,8.80
2022-09-12T05:12:29.325Z,9.20
2022-09-12T05:14:29.340Z,9.20
2022-09-12T05:16:29.388Z,9.30
2022-09-12T05:18:29.403Z,9.30
2022-09-12T05:20:29.272Z,9.40
2022-09-12T05:22:29.386Z,9.40
2022-09-12T05:24:29.285Z,9.40
2022-09-12T05:26:29.272Z,9.50
2022-09-12T05:28:29.409Z,9.50
2022-09-12T05:30:29.393Z,9.50
2022-09-12T05:32:32.245Z,9.50
2022-09-12T05:34:32.327Z,9.50
2022-09-12T05:36:29.398Z,9.50
2022-09-12T05:38:29.274Z,9.50
2022-09-12T05:40:29.310Z,9.50
2022-09-12T05:42:29.342Z,9.50
2022-09-12T05:44:29.373Z,9.40
2022-09-12T05:46:29.268Z,9.50
2022-09-12T05:48:29.351Z,9.60
2022-09-12T05:50:29.294Z,9.50
2022-09-12T05:52:29.399Z,9.50
2022-09-12T05:54:31.677Z,9.60
2022-09-12T05:56:29.326Z,9.60
2022-09-12T05:58:29.676Z,9.60
2022-09-12T06:00:31.612Z,9.70
2022-09-12T06:02:29.323Z,9.70
2022-09-12T06:04:29.290Z,9.80
2022-09-12T06:06:29.286Z,9.80
2022-09-12T06:08:29.266Z,9.90
2022-09-12T06:10:29.306Z,9.90
2022-09-12T06:12:30.388Z,9.90
2022-09-12T06:14:29.368Z,9.90
2022-09-12T06:16:29.847Z,9.90
2022-09-12T06:18:59.404Z,9.90
2022-09-12T06:20:59.294Z,10.00
2022-09-12T06:22:59.322Z,10.30
2022-09-12T06:24:59.312Z,10.30
2022-09-12T06:26:59.326Z,10.30
2022-09-12T06:28:59.356Z,10.50
2022-09-12T06:30:59.304Z,10.80
2022-09-12T06:32:59.341Z,10.90
2022-09-12T06:34:59.324Z,10.90
2022-09-12T06:36:59.458Z,11.10
2022-09-12T06:38:59.321Z,11.10
2022-09-12T06:40:59.287Z,11.20
2022-09-12T06:42:59.312Z,11.20
2022-09-12T06:44:59.304Z,11.30
2022-09-12T06:46:59.292Z,11.40
2022-09-12T06:48:59.336Z,11.40
2022-09-12T06:50:59.305Z,11.60
2022-09-12T06:52:59.330Z,11.60
2022-09-12T06:54:59.366Z,11.60
2022-09-12T06:56:59.298Z,11.80
2022-09-12T06:58:59.334Z,11.80
2022-09-12T07:00:59.589Z,11.90
2022-09-12T07:02:59.345Z,11.90
2022-09-12T07:04:59.371Z,12.00
2022-09-12T07:06:59.304Z,12.20
2022-09-12T07:08:59.440Z,12.20
2022-09-12T07:10:59.393Z,12.20
2022-09-12T07:12:59.468Z,12.40
2022-09-12T07:14:59.340Z,12.40
2022-09-12T07:16:59.394Z,12.50
2022-09-12T07:18:59.317Z,12.50
2022-09-12T07:20:59.443Z,12.50
2022-09-12T07:22:59.366Z,12.70
2022-09-12T07:24:59.350Z,12.70
2022-09-12T07:26:59.380Z,12.90
2022-09-12T07:29:13.144Z,13.00
2022-09-12T07:30:59.390Z,13.00
2022-09-12T07:32:59.438Z,13.10
2022-09-12T07:34:59.324Z,13.20
2022-09-12T07:36:59.319Z,13.40
2022-09-12T07:38:59.341Z,13.40
2022-09-12T07:40:59.361Z,13.60
2022-09-12T07:42:59.349Z,13.70
2022-09-12T07:44:59.369Z,13.90
2022-09-12T07:46:59.349Z,14.10
2022-09-12T07:48:59.358Z,14.10
2022-09-12T07:50:59.368Z,14.20
2022-09-12T07:52:59.350Z,14.40
2022-09-12T07:54:59.531Z,14.40
2022-09-12T07:56:59.365Z,14.50
2022-09-12T07:58:59.377Z,14.50
2022-09-12T08:00:59.438Z,14.50
2022-09-12T08:02:59.349Z,14.50
2022-09-12T08:04:59.352Z,15.20
2022-09-12T08:06:59.442Z,15.50
2022-09-12T08:08:59.452Z,15.50
2022-09-12T08:11:29.413Z,15.80
2022-09-12T08:13:29.375Z,16.00
2022-09-12T08:15:29.456Z,16.20
2022-09-12T08:17:29.399Z,16.20
2022-09-12T08:19:29.387Z,16.40
2022-09-12T08:21:29.449Z,16.60
2022-09-12T08:23:29.377Z,16.60
2022-09-12T08:25:29.364Z,17.00
2022-09-12T08:27:29.387Z,17.00
2022-09-12T08:29:29.478Z,17.20
2022-09-12T08:31:29.456Z,17.40
2022-09-12T08:33:29.465Z,17.80
2022-09-12T08:35:29.488Z,18.10
2022-09-12T08:37:29.364Z,18.10
2022-09-12T08:39:10.349Z,18.60
2022-09-12T08:41:10.360Z,18.60
2022-09-12T08:43:10.370Z,19.50
2022-09-12T08:45:10.379Z,19.50
2022-09-12T08:47:10.360Z,19.50
2022-09-12T08:49:10.382Z,19.70
2022-09-12T08:51:10.465Z,20.00
2022-09-12T08:53:40.385Z,20.10
2022-09-12T08:55:40.411Z,20.10
2022-09-12T08:57:40.351Z,20.30
2022-09-12T08:59:40.402Z,20.30
2022-09-12T09:01:40.385Z,20.50
2022-09-12T09:03:40.434Z,21.00
2022-09-12T09:05:40.379Z,21.00
2022-09-12T09:07:40.409Z,21.20
2022-09-12T09:09:40.388Z,21.80
2022-09-12T09:11:40.533Z,21.60
2022-09-12T09:13:40.409Z,21.60
2022-09-12T09:15:40.472Z,21.70
2022-09-12T09:17:40.401Z,21.90
2022-09-12T09:19:40.380Z,21.60
2022-09-12T09:21:40.413Z,21.60
2022-09-12T09:23:40.389Z,21.60
2022-09-12T09:25:40.396Z,22.00
2022-09-12T09:27:41.495Z,22.50
2022-09-12T09:29:40.419Z,22.60
2022-09-12T09:31:40.412Z,22.00
2022-09-12T09:33:40.503Z,22.00
2022-09-12T09:35:40.483Z,21.80
2022-09-12T09:37:40.429Z,22.00
2022-09-12T09:39:40.474Z,22.60
2022-09-12T09:41:40.469Z,22.60
2022-09-12T09:43:40.442Z,22.70
2022-09-12T09:45:43.381Z,22.80
2022-09-12T09:47:40.455Z,23.10
2022-09-12T09:49:40.461Z,22.80
2022-09-12T09:51:40.451Z,22.80
2022-09-12T09:53:40.445Z,23.20
2022-09-12T09:55:40.465Z,23.60
2022-09-12T09:57:40.459Z,23.50
2022-09-12T09:59:40.450Z,23.70
2022-09-12T10:01:40.465Z,23.70
2022-09-12T10:03:40.461Z,23.70
2022-09-12T10:05:40.424Z,23.60
2022-09-12T10:07:40.432Z,23.80
2022-09-12T10:09:40.435Z,24.20
2022-09-12T10:11:45.116Z,24.20
2022-09-12T10:13:40.435Z,24.10
2022-09-12T10:15:40.466Z,23.90
2022-09-12T10:17:40.427Z,23.80
2022-09-12T10:19:40.463Z,23.80
2022-09-12T10:21:41.434Z,24.00
2022-09-12T10:23:40.467Z,24.30
2022-09-12T10:25:40.459Z,23.70
2022-09-12T10:27:40.491Z,23.50
2022-09-12T10:29:40.461Z,23.50
2022-09-12T10:31:40.489Z,23.50
2022-09-12T10:33:40.447Z,23.80
2022-09-12T10:35:40.489Z,24.10
2022-09-12T10:37:40.503Z,24.00
2022-09-12T10:39:40.533Z,24.00
2022-09-12T10:41:40.561Z,23.80
2022-09-12T10:43:40.545Z,23.80
2022-09-12T10:45:40.567Z,23.60
2022-09-12T10:47:40.484Z,23.60
2022-09-12T10:49:40.492Z,23.60
2022-09-12T10:51:40.604Z,23.30
2022-09-12T10:53:40.527Z,23.90
2022-09-12T10:56:10.520Z,24.00
2022-09-12T10:58:10.539Z,24.10
2022-09-12T11:00:10.549Z,24.00
2022-09-12T11:02:10.560Z,24.00
2022-09-12T11:04:10.606Z,23.90
2022-09-12T11:06:10.614Z,24.60
2022-09-12T11:08:10.628Z,24.60
2022-09-12T11:10:10.520Z,23.90
2022-09-12T11:12:10.498Z,23.90
2022-09-12T11:14:10.520Z,24.10
2022-09-12T11:16:10.628Z,23.80
2022-09-12T11:18:10.511Z,23.50
2022-09-12T11:20:10.523Z,23.50
2022-09-12T11:22:10.496Z,23.80
2022-09-12T11:24:10.634Z,23.80
2022-09-12T11:26:10.587Z,23.80
2022-09-12T11:28:10.599Z,24.00
2022-09-12T11:30:10.614Z,24.00
2022-09-12T11:32:10.626Z,23.90
2022-09-12T11:34:10.568Z,23.60
2022-09-12T11:36:10.535Z,23.60
2022-09-12T11:38:10.566Z,23.60
2022-09-12T11:40:10.748Z,23.60
2022-09-12T11:42:10.568Z,23.70
2022-09-12T11:44:10.626Z,24.30
2022-09-12T11:46:10.682Z,24.30
2022-09-12T11:48:10.641Z,24.30
2022-09-12T11:50:10.615Z,24.30
2022-09-12T11:52:10.941Z,24.30
2022-09-12T11:54:10.634Z,24.40
2022-09-12T11:56:10.543Z,24.30
2022-09-12T11:58:10.568Z,24.30
2022-09-12T12:00:10.631Z,24.80
2022-09-12T12:02:10.687Z,25.00
2022-09-12T12:04:10.720Z,25.00
2022-09-12T12:06:10.695Z,25.20
2022-09-12T12:08:10.640Z,25.20
2022-09-12T12:10:10.737Z,25.70
2022-09-12T12:12:10.678Z,25.60
2022-09-12T12:14:10.616Z,25.60
2022-09-12T12:16:10.671Z,25.60
2022-09-12T12:18:10.651Z,25.60
2022-09-12T12:20:10.753Z,25.10
2022-09-12T12:22:11.745Z,25.20
2022-09-12T12:24:10.737Z,25.40
2022-09-12T12:26:10.681Z,25.40
2022-09-12T12:28:10.755Z,24.80
2022-09-12T12:30:10.628Z,24.80
2022-09-12T12:32:10.632Z,25.20
2022-09-12T12:34:10.694Z,25.30
2022-09-12T12:36:10.673Z,25.30
2022-09-12T12:38:10.604Z,25.20
2022-09-12T12:40:10.694Z,25.20
2022-09-12T12:42:10.871Z,25.20
2022-09-12T12:44:10.771Z,25.20
2022-09-12T12:46:10.742Z,25.20
2022-09-12T12:48:10.669Z,24.60
2022-09-12T12:50:10.727Z,24.60
2022-09-12T12:52:10.743Z,24.60
2022-09-12T12:54:13.030Z,24.60
2022-09-12T12:56:40.771Z,24.20
2022-09-12T12:58:40.762Z,24.20
2022-09-12T13:00:40.747Z,24.10
2022-09-12T13:02:40.670Z,24.20
2022-09-12T13:04:40.694Z,24.20
2022-09-12T13:06:40.744Z,24.40
2022-09-12T13:08:40.752Z,24.90
2022-09-12T13:10:40.736Z,25.10
2022-09-12T13:12:40.938Z,25.10
2022-09-12T13:14:40.728Z,25.10
2022-09-12T13:16:40.844Z,24.60
2022-09-12T13:18:40.669Z,24.60
2022-09-12T13:20:40.708Z,24.80
2022-09-12T13:22:40.689Z,24.80
2022-09-12T13:24:40.726Z,24.50
2022-09-12T13:26:40.844Z,24.50
2022-09-12T13:28:40.867Z,25.10
2022-09-12T13:30:40.817Z,25.20
2022-09-12T13:32:40.809Z,25.20
2022-09-12T13:34:40.723Z,25.00
2022-09-12T13:36:40.739Z,25.00
2022-09-12T13:38:40.729Z,25.20
2022-09-12T13:40:40.750Z,24.80
2022-09-12T13:42:40.772Z,24.80
2022-09-12T13:44:40.806Z,24.70
2022-09-12T13:46:40.825Z,24.80
2022-09-12T13:48:41.029Z,25.10
2022-09-12T13:50:40.954Z,25.10
2022-09-12T13:52:41.036Z,25.00
2022-09-12T13:54:40.993Z,24.60
2022-09-12T13:56:40.764Z,24.40
2022-09-12T13:58:40.765Z,24.20
2022-09-12T14:00:40.777Z,24.20
2022-09-12T14:02:40.878Z,23.90
2022-09-12T14:04:40.711Z,23.80
2022-09-12T14:06:41.621Z,23.80
2022-09-12T14:08:41.211Z,23.30
2022-09-12T14:10:41.043Z,23.30
2022-09-12T14:12:41.878Z,23.10
2022-09-12T14:14:41.147Z,22.80
2022-09-12T14:16:40.817Z,22.50
2022-09-12T14:18:41.099Z,22.50
2022-09-12T14:20:40.857Z,22.40
2022-09-12T14:22:40.730Z,22.10
2022-09-12T14:24:40.760Z,22.10
2022-09-12T14:26:40.733Z,22.20
2022-09-12T14:28:40.764Z,22.20
2022-09-12T14:30:40.862Z,22.20
2022-09-12T14:32:40.783Z,22.10
2022-09-12T14:34:40.761Z,22.10
2022-09-12T14:36:40.735Z,22.10
2022-09-12T14:38:40.691Z,22.10
2022-09-12T14:40:40.776Z,22.10
2022-09-12T14:42:40.750Z,22.10
2022-09-12T14:44:40.777Z,22.10
2022-09-12T14:46:40.900Z,22.10
2022-09-12T14:48:40.924Z,22.10
2022-09-12T14:50:40.842Z,22.10
2022-09-12T14:52:40.713Z,21.80
2022-09-12T14:54:40.818Z,21.80
2022-09-12T14:56:40.762Z,21.80
2022-09-12T14:59:10.807Z,21.80
2022-09-12T15:01:10.847Z,21.80
2022-09-12T15:03:10.805Z,21.80
2022-09-12T15:05:10.832Z,21.70
2022-09-12T15:07:10.811Z,21.70
2022-09-12T15:09:10.878Z,21.60
2022-09-12T15:11:10.777Z,21.60
2022-09-12T15:13:10.795Z,21.60
2022-09-12T15:15:10.841Z,21.60
2022-09-12T15:17:10.791Z,21.60
2022-09-12T15:19:10.870Z,21.60
2022-09-12T15:21:10.851Z,21.60
2022-09-12T15:23:10.865Z,21.60
2022-09-12T15:25:10.859Z,21.60
2022-09-12T15:27:10.801Z,21.60
2022-09-12T15:29:18.270Z,21.60
2022-09-12T15:31:18.506Z,21.60
2022-09-12T15:33:18.415Z,21.60
2022-09-12T15:35:18.325Z,21.60
2022-09-12T15:37:18.337Z,21.40
2022-09-12T15:39:18.339Z,21.40
2022-09-12T15:41:18.400Z,21.40
2022-09-12T15:43:18.373Z,21.40
2022-09-12T15:45:18.439Z,21.40
2022-09-12T15:47:18.448Z,21.40
2022-09-12T15:49:18.444Z,21.40
2022-09-12T15:51:18.359Z,21.40
2022-09-12T15:53:18.378Z,21.40
2022-09-12T15:55:18.369Z,21.40
2022-09-12T15:57:18.411Z,21.40
2022-09-12T15:59:18.392Z,21.40
2022-09-12T16:01:18.762Z,21.20
2022-09-12T16:03:18.436Z,21.20
2022-09-12T16:05:18.477Z,21.20
2022-09-12T16:07:18.363Z,21.20
2022-09-12T16:09:18.353Z,21.20
2022-09-12T16:11:18.419Z,21.10
2022-09-12T16:13:18.374Z,21.10
2022-09-12T16:15:18.441Z,21.10
2022-09-12T16:17:18.714Z,21.10
2022-09-12T16:19:18.460Z,21.10
2022-09-12T16:21:18.486Z,21.10
2022-09-12T16:23:18.401Z,21.10
2022-09-12T16:25:18.405Z,21.10
2022-09-12T16:27:18.350Z,21.00
2022-09-12T16:29:18.393Z,20.80
2022-09-12T16:31:18.488Z,20.80
2022-09-12T16:33:18.479Z,20.70
2022-09-12T16:35:18.458Z,20.70
2022-09-12T16:37:18.384Z,20.50
2022-09-12T16:39:18.385Z,20.50
2022-09-12T16:41:18.432Z,20.40
2022-09-12T16:43:18.410Z,20.40
2022-09-12T16:45:18.422Z,20.40
2022-09-12T16:47:18.430Z,20.20
2022-09-12T16:49:18.522Z,20.20
2022-09-12T16:51:18.487Z,20.00
2022-09-12T16:53:18.381Z,20.00
2022-09-12T16:55:18.396Z,19.80
2022-09-12T16:57:18.409Z,19.80
2022-09-12T16:59:18.439Z,19.80
2022-09-12T17:01:18.465Z,19.50
2022-09-12T17:03:18.466Z,19.50
2022-09-12T17:05:18.477Z,19.50
2022-09-12T17:07:18.500Z,19.50
2022-09-12T17:09:18.399Z,19.50
2022-09-12T17:11:18.445Z,19.00
2022-09-12T17:13:18.459Z,19.00
2022-09-12T17:15:18.472Z,19.00
2022-09-12T17:17:18.481Z,19.00
2022-09-12T17:19:18.444Z,19.00
2022-09-12T17:21:18.505Z,19.00
2022-09-12T17:23:18.491Z,19.00
2022-09-12T17:25:18.387Z,19.00
2022-09-12T17:27:48.389Z,18.40
2022-09-12T17:29:48.463Z,18.40
2022-09-12T17:31:48.449Z,18.40
2022-09-12T17:33:48.708Z,18.40
2022-09-12T17:35:48.482Z,18.40
2022-09-12T17:37:48.497Z,18.40
2022-09-12T17:39:48.516Z,18.40
2022-09-12T17:41:48.755Z,18.40
2022-09-12T17:43:48.611Z,18.40
2022-09-12T17:45:48.469Z,17.40
2022-09-12T17:47:48.474Z,17.40
2022-09-12T17:49:48.500Z,17.40
2022-09-12T17:51:48.504Z,17.40
2022-09-12T17:53:48.543Z,16.80
2022-09-12T17:55:51.494Z,16.80
2022-09-12T17:57:48.448Z,16.80
2022-09-12T17:59:48.457Z,16.80
2022-09-12T18:01:48.643Z,16.80
2022-09-12T18:03:48.618Z,16.50
2022-09-12T18:05:48.584Z,16.50
2022-09-12T18:07:48.561Z,16.50
2022-09-12T18:09:48.513Z,16.50
2022-09-12T18:11:48.433Z,16.50
2022-09-12T18:13:48.536Z,16.50
2022-09-12T18:15:48.533Z,16.50
2022-09-12T18:17:48.477Z,15.50
2022-09-12T18:19:52.882Z,15.50
2022-09-12T18:21:48.541Z,15.50
2022-09-12T18:23:48.577Z,15.50
2022-09-12T18:25:48.473Z,15.50
2022-09-12T18:27:48.447Z,15.50
2022-09-12T18:30:04.286Z,15.30
2022-09-12T18:31:48.475Z,15.30
2022-09-12T18:33:48.604Z,15.30
2022-09-12T18:35:48.570Z,15.30
2022-09-12T18:37:48.510Z,15.30
2022-09-12T18:39:48.604Z,15.10
2022-09-12T18:41:48.444Z,15.00
2022-09-12T18:43:48.677Z,15.00
2022-09-12T18:45:48.511Z,15.00
2022-09-12T18:47:48.519Z,15.00
2022-09-12T18:49:48.547Z,15.00
2022-09-12T18:51:48.540Z,15.00
2022-09-12T18:53:48.656Z,15.00
2022-09-12T18:55:48.576Z,15.00
2022-09-12T18:57:48.478Z,14.80
2022-09-12T18:59:48.515Z,14.80
2022-09-12T19:01:48.562Z,14.80
2022-09-12T19:03:48.606Z,14.80
2022-09-12T19:05:48.545Z,14.80
2022-09-12T19:07:48.577Z,14.80
2022-09-12T19:09:48.548Z,14.80
2022-09-12T19:11:48.591Z,14.80
2022-09-12T19:13:48.553Z,14.80
2022-09-12T19:15:48.601Z,14.80
2022-09-12T19:17:48.467Z,14.80
2022-09-12T19:19:48.536Z,14.80
2022-09-12T19:21:48.579Z,14.80
2022-09-12T19:24:18.580Z,13.90
2022-09-12T19:26:18.598Z,13.80
2022-09-12T19:28:18.498Z,13.80
2022-09-12T19:30:18.491Z,13.80
2022-09-12T19:32:18.493Z,13.80
2022-09-12T19:34:18.501Z,13.60
2022-09-12T19:36:41.341Z,13.60
2022-09-12T19:38:18.465Z,13.60
2022-09-12T19:40:18.613Z,13.60
2022-09-12T19:42:18.661Z,13.60
2022-09-12T19:44:18.742Z,14.00
2022-09-12T19:46:18.541Z,14.00
2022-09-12T19:48:18.490Z,14.00
2022-09-12T19:50:18.497Z,14.40
2022-09-12T19:52:18.525Z,14.60
2022-09-12T19:54:18.483Z,14.80
2022-09-12T19:56:18.701Z,14.80
2022-09-12T19:58:18.640Z,14.80
2022-09-12T20:00:18.514Z,15.00
2022-09-12T20:02:18.592Z,15.00
2022-09-12T20:04:18.532Z,15.00
2022-09-12T20:06:18.572Z,15.00
2022-09-12T20:08:18.600Z,15.00
2022-09-12T20:10:18.528Z,15.00
2022-09-12T20:12:18.538Z,15.00
2022-09-12T20:14:18.523Z,14.40
2022-09-12T20:16:21.702Z,14.40
2022-09-12T20:18:18.564Z,14.30
2022-09-12T20:20:18.579Z,14.30
2022-09-12T20:22:18.616Z,14.10
2022-09-12T20:24:18.499Z,14.10
2022-09-12T20:26:18.645Z,14.10
2022-09-12T20:28:18.529Z,14.10
2022-09-12T20:30:18.522Z,14.10
2022-09-12T20:32:18.567Z,14.20
2022-09-12T20:34:18.501Z,14.20
2022-09-12T20:36:18.584Z,14.20
2022-09-12T20:38:18.543Z,14.40
2022-09-12T20:40:18.600Z,14.40
2022-09-12T20:42:18.529Z,14.40
2022-09-12T20:44:18.524Z,14.40
2022-09-12T20:46:21.623Z,14.40
2022-09-12T20:48:18.561Z,14.40
2022-09-12T20:50:18.591Z,14.60
2022-09-12T20:52:18.537Z,14.60
2022-09-12T20:54:18.589Z,14.60
2022-09-12T20:56:18.548Z,15.00
2022-09-12T20:58:18.532Z,15.00
2022-09-12T21:00:18.570Z,15.00
2022-09-12T21:02:18.710Z,15.00
2022-09-12T21:04:18.540Z,15.30
2022-09-12T21:06:18.556Z,15.30
2022-09-12T21:08:18.535Z,15.30
2022-09-12T21:10:18.516Z,15.40
2022-09-12T21:12:18.598Z,15.40
2022-09-12T21:14:18.602Z,15.30
2022-09-12T21:16:18.609Z,15.40
2022-09-12T21:18:18.567Z,15.40
2022-09-12T21:20:48.638Z,15.40
2022-09-12T21:22:48.617Z,15.40
2022-09-12T21:24:48.648Z,15.50
2022-09-12T21:26:48.540Z,15.50
2022-09-12T21:28:48.601Z,15.50
2022-09-12T21:30:48.787Z,15.50
2022-09-12T21:32:48.575Z,15.50
2022-09-12T21:34:48.551Z,15.50
2022-09-12T21:36:48.595Z,15.80
2022-09-12T21:38:48.589Z,15.80
2022-09-12T21:40:48.651Z,15.80
2022-09-12T21:42:48.696Z,16.00
2022-09-12T21:44:48.583Z,16.00
2022-09-12T21:46:48.654Z,16.00
2022-09-12T21:48:48.609Z,16.00
2022-09-12T21:50:48.571Z,16.00
2022-09-12T21:52:48.574Z,16.00
2022-09-12T21:54:48.594Z,16.00
2022-09-12T21:56:48.585Z,16.00
2022-09-12T21:58:48.669Z,16.00
2022-09-12T22:00:48.626Z,16.00
2022-09-12T22:02:48.650Z,15.90
2022-09-12T22:04:48.618Z,15.90
2022-09-12T22:06:48.559Z,15.80
2022-09-12T22:08:48.654Z,15.80
2022-09-12T22:10:48.674Z,15.80
2022-09-12T22:12:48.645Z,15.70
2022-09-12T22:14:48.645Z,15.70
2022-09-12T22:16:48.596Z,15.40
2022-09-12T22:18:48.657Z,15.40
2022-09-12T22:20:48.592Z,15.20
2022-09-12T22:22:48.606Z,15.20
2022-09-12T22:24:48.690Z,15.00
2022-09-12T22:26:48.629Z,15.00
2022-09-12T22:28:48.770Z,15.00
2022-09-12T22:30:48.873Z,15.00
2022-09-12T22:32:48.672Z,15.00
2022-09-12T22:34:48.773Z,15.00
2022-09-12T22:36:48.635Z,15.00
2022-09-12T22:38:59.694Z,15.00
2022-09-12T22:40:59.665Z,15.00
2022-09-12T22:42:59.659Z,15.00
2022-09-12T22:44:59.687Z,15.00
2022-09-12T22:46:59.781Z,14.80
2022-09-12T22:48:59.727Z,14.80
2022-09-12T22:50:59.680Z,14.80
2022-09-12T22:52:59.765Z,14.80
2022-09-12T22:54:59.689Z,14.80
2022-09-12T22:56:59.702Z,14.60
2022-09-12T22:58:59.716Z,14.60
2022-09-12T23:00:59.807Z,14.60
2022-09-12T23:02:59.753Z,14.60
2022-09-12T23:04:59.731Z,14.60
2022-09-12T23:06:59.727Z,14.60
2022-09-12T23:08:59.712Z,14.60
2022-09-12T23:10:59.702Z,14.60
2022-09-12T23:12:59.685Z,14.70
2022-09-12T23:14:59.713Z,14.60
2022-09-12T23:16:59.747Z,14.60
2022-09-12T23:18:59.712Z,14.60
2022-09-12T23:20:59.707Z,14.60
2022-09-12T23:22:59.721Z,14.60
2022-09-12T23:24:59.694Z,14.60
2022-09-12T23:26:59.745Z,14.60
2022-09-12T23:28:59.739Z,14.70
2022-09-12T23:30:59.861Z,14.70
2022-09-12T23:32:59.863Z,14.70
2022-09-12T23:34:59.728Z,14.70
2022-09-12T23:36:59.720Z,14.70
2022-09-12T23:38:59.743Z,14.80
2022-09-12T23:40:59.779Z,14.80
2022-09-12T23:42:59.725Z,14.70
2022-09-12T23:44:59.744Z,14.80
2022-09-12T23:46:59.850Z,14.80
2022-09-12T23:48:59.746Z,14.80
2022-09-12T23:50:59.728Z,14.90
2022-09-12T23:52:59.838Z,14.80
2022-09-12T23:54:59.710Z,14.80
2022-09-12T23:56:59.780Z,14.80
2022-09-12T23:59:29.745Z,14.70
